sensor_id;sensor_type;location;lat;lon;timestamp;temperature;humidity
8595;DHT22;4335;48.860;9.198;2023-06-10T00:02:22;19.70;99.90
8595;DHT22;4335;48.860;9.198;2023-06-10T00:08:37;19.60;99.90
8595;DHT22;4335;48.860;9.198;2023-06-10T00:11:32;19.60;99.90
8595;DHT22;4335;48.860;9.198;2023-06-10T00:14:23;19.50;99.90
8595;DHT22;4335;48.860;9.198;2023-06-10T00:17:06;19.50;99.90
8595;DHT22;4335;48.860;9.198;2023-06-10T00:20:01;19.50;99.90
8595;DHT22;4335;48.860;9.198;2023-06-10T00:22:44;19.50;99.90
8595;DHT22;4335;48.860;9.198;2023-06-10T00:26:01;19.50;99.90
8595;DHT22;4335;48.860;9.198;2023-06-10T00:28:51;19.40;99.90
8595;DHT22;4335;48.860;9.198;2023-06-10T00:34:57;19.40;99.90
8595;DHT22;4335;48.860;9.198;2023-06-10T00:38:08;19.40;99.90
8595;DHT22;4335;48.860;9.198;2023-06-10T00:41:00;19.40;99.90
8595;DHT22;4335;48.860;9.198;2023-06-10T00:43:54;19.40;99.90
8595;DHT22;4335;48.860;9.198;2023-06-10T00:46:44;19.40;99.90
8595;DHT22;4335;48.860;9.198;2023-06-10T00:49:45;19.30;99.90
8595;DHT22;4335;48.860;9.198;2023-06-10T00:52:28;19.30;99.90
8595;DHT22;4335;48.860;9.198;2023-06-10T00:55:07;19.30;99.90
8595;DHT22;4335;48.860;9.198;2023-06-10T00:57:57;19.30;99.90
8595;DHT22;4335;48.860;9.198;2023-06-10T01:00:42;19.20;99.90
8595;DHT22;4335;48.860;9.198;2023-06-10T01:03:31;19.20;99.90
8595;DHT22;4335;48.860;9.198;2023-06-10T01:06:13;19.10;99.90
8595;DHT22;4335;48.860;9.198;2023-06-10T01:09:17;19.10;99.90
8595;DHT22;4335;48.860;9.198;2023-06-10T01:12:19;19.00;99.90
8595;DHT22;4335;48.860;9.198;2023-06-10T01:15:00;19.00;99.90
8595;DHT22;4335;48.860;9.198;2023-06-10T01:18:29;19.00;99.90
8595;DHT22;4335;48.860;9.198;2023-06-10T01:20:49;19.00;99.90
8595;DHT22;4335;48.860;9.198;2023-06-10T01:23:26;19.10;99.90
8595;DHT22;4335;48.860;9.198;2023-06-10T01:26:02;19.00;99.90
8595;DHT22;4335;48.860;9.198;2023-06-10T01:28:44;19.00;99.90
8595;DHT22;4335;48.860;9.198;2023-06-10T01:31:35;19.00;99.90
8595;DHT22;4335;48.860;9.198;2023-06-10T01:34:28;19.00;99.90
8595;DHT22;4335;48.860;9.198;2023-06-10T01:37:22;19.00;99.90
8595;DHT22;4335;48.860;9.198;2023-06-10T01:40:44;18.90;99.90
8595;DHT22;4335;48.860;9.198;2023-06-10T01:43:14;18.80;99.90
8595;DHT22;4335;48.860;9.198;2023-06-10T01:59:13;18.70;99.90
8595;DHT22;4335;48.860;9.198;2023-06-10T02:01:55;18.60;99.90
8595;DHT22;4335;48.860;9.198;2023-06-10T02:04:37;18.60;99.90
8595;DHT22;4335;48.860;9.198;2023-06-10T02:07:48;18.60;99.90
8595;DHT22;4335;48.860;9.198;2023-06-10T02:11:08;18.50;99.90
8595;DHT22;4335;48.860;9.198;2023-06-10T02:13:55;18.50;99.90
8595;DHT22;4335;48.860;9.198;2023-06-10T02:16:57;18.50;99.90
8595;DHT22;4335;48.860;9.198;2023-06-10T02:20:13;18.40;99.90
8595;DHT22;4335;48.860;9.198;2023-06-10T02:25:59;18.30;99.90
8595;DHT22;4335;48.860;9.198;2023-06-10T02:29:04;18.30;99.90
8595;DHT22;4335;48.860;9.198;2023-06-10T02:31:53;18.20;99.90
8595;DHT22;4335;48.860;9.198;2023-06-10T02:34:40;18.20;99.90
8595;DHT22;4335;48.860;9.198;2023-06-10T02:37:08;18.10;99.90
8595;DHT22;4335;48.860;9.198;2023-06-10T02:39:38;18.10;99.90
8595;DHT22;4335;48.860;9.198;2023-06-10T02:42:42;18.10;99.90
8595;DHT22;4335;48.860;9.198;2023-06-10T02:48:16;18.10;99.90
8595;DHT22;4335;48.860;9.198;2023-06-10T02:51:17;18.10;99.90
8595;DHT22;4335;48.860;9.198;2023-06-10T02:53:57;18.00;99.90
8595;DHT22;4335;48.860;9.198;2023-06-10T02:56:32;18.00;99.90
8595;DHT22;4335;48.860;9.198;2023-06-10T02:59:17;18.00;99.90
8595;DHT22;4335;48.860;9.198;2023-06-10T03:04:57;17.90;99.90
8595;DHT22;4335;48.860;9.198;2023-06-10T03:07:58;17.90;99.90
8595;DHT22;4335;48.860;9.198;2023-06-10T03:10:41;17.80;99.90
8595;DHT22;4335;48.860;9.198;2023-06-10T03:13:25;17.80;99.90
8595;DHT22;4335;48.860;9.198;2023-06-10T03:16:06;17.80;99.90
8595;DHT22;4335;48.860;9.198;2023-06-10T03:18:48;17.80;99.90
8595;DHT22;4335;48.860;9.198;2023-06-10T03:21:25;17.80;99.90
8595;DHT22;4335;48.860;9.198;2023-06-10T03:24:35;17.80;99.90
8595;DHT22;4335;48.860;9.198;2023-06-10T03:27:11;17.80;99.90
8595;DHT22;4335;48.860;9.198;2023-06-10T03:30:04;17.70;99.90
8595;DHT22;4335;48.860;9.198;2023-06-10T03:32:53;17.80;99.90
8595;DHT22;4335;48.860;9.198;2023-06-10T03:35:22;17.80;99.90
8595;DHT22;4335;48.860;9.198;2023-06-10T03:38:05;17.80;99.90
8595;DHT22;4335;48.860;9.198;2023-06-10T03:40:58;17.90;99.90
8595;DHT22;4335;48.860;9.198;2023-06-10T03:43:30;17.90;99.90
8595;DHT22;4335;48.860;9.198;2023-06-10T03:46:40;18.10;99.90
8595;DHT22;4335;48.860;9.198;2023-06-10T03:49:21;18.30;99.90
8595;DHT22;4335;48.860;9.198;2023-06-10T03:51:54;18.50;99.90
8595;DHT22;4335;48.860;9.198;2023-06-10T03:54:45;18.90;99.90
8595;DHT22;4335;48.860;9.198;2023-06-10T03:57:30;19.20;99.90
8595;DHT22;4335;48.860;9.198;2023-06-10T04:06:57;19.90;99.90
8595;DHT22;4335;48.860;9.198;2023-06-10T04:09:33;20.10;99.90
8595;DHT22;4335;48.860;9.198;2023-06-10T04:12:15;20.30;99.90
8595;DHT22;4335;48.860;9.198;2023-06-10T04:14:59;20.40;99.90
8595;DHT22;4335;48.860;9.198;2023-06-10T04:17:34;20.60;99.90
8595;DHT22;4335;48.860;9.198;2023-06-10T04:20:03;20.90;99.90
8595;DHT22;4335;48.860;9.198;2023-06-10T04:23:17;21.20;99.90
8595;DHT22;4335;48.860;9.198;2023-06-10T04:26:19;21.60;99.90
8595;DHT22;4335;48.860;9.198;2023-06-10T04:29:00;22.10;99.90
8595;DHT22;4335;48.860;9.198;2023-06-10T04:31:40;22.70;99.90
8595;DHT22;4335;48.860;9.198;2023-06-10T04:34:40;23.00;99.90
8595;DHT22;4335;48.860;9.198;2023-06-10T04:41:03;23.40;99.90
8595;DHT22;4335;48.860;9.198;2023-06-10T04:43:40;23.70;99.90
8595;DHT22;4335;48.860;9.198;2023-06-10T04:46:24;23.80;99.90
8595;DHT22;4335;48.860;9.198;2023-06-10T04:49:21;24.00;99.90
8595;DHT22;4335;48.860;9.198;2023-06-10T04:55:16;24.50;99.90
8595;DHT22;4335;48.860;9.198;2023-06-10T04:57:49;24.80;99.90
8595;DHT22;4335;48.860;9.198;2023-06-10T05:00:59;25.00;99.90
8595;DHT22;4335;48.860;9.198;2023-06-10T05:06:41;25.30;99.90
8595;DHT22;4335;48.860;9.198;2023-06-10T05:10:14;25.50;99.90
8595;DHT22;4335;48.860;9.198;2023-06-10T05:13:16;25.40;99.90
8595;DHT22;4335;48.860;9.198;2023-06-10T05:16:40;25.50;99.90
8595;DHT22;4335;48.860;9.198;2023-06-10T05:19:40;25.50;99.90
8595;DHT22;4335;48.860;9.198;2023-06-10T05:22:33;25.60;99.90
8595;DHT22;4335;48.860;9.198;2023-06-10T05:26:11;25.70;99.90
8595;DHT22;4335;48.860;9.198;2023-06-10T05:28:43;26.10;99.90
8595;DHT22;4335;48.860;9.198;2023-06-10T05:31:34;26.30;99.90
8595;DHT22;4335;48.860;9.198;2023-06-10T05:34:10;26.30;99.90
8595;DHT22;4335;48.860;9.198;2023-06-10T05:36:43;26.60;99.90
8595;DHT22;4335;48.860;9.198;2023-06-10T05:39:15;26.80;99.80
8595;DHT22;4335;48.860;9.198;2023-06-10T05:42:09;27.00;99.10
8595;DHT22;4335;48.860;9.198;2023-06-10T05:45:10;27.30;99.00
8595;DHT22;4335;48.860;9.198;2023-06-10T05:51:14;27.90;97.40
8595;DHT22;4335;48.860;9.198;2023-06-10T05:54:02;27.90;96.80
8595;DHT22;4335;48.860;9.198;2023-06-10T05:57:18;28.10;96.80
8595;DHT22;4335;48.860;9.198;2023-06-10T06:00:14;28.50;95.50
8595;DHT22;4335;48.860;9.198;2023-06-10T06:03:05;28.70;95.20
8595;DHT22;4335;48.860;9.198;2023-06-10T06:05:40;28.90;95.00
8595;DHT22;4335;48.860;9.198;2023-06-10T06:09:02;28.90;94.50
8595;DHT22;4335;48.860;9.198;2023-06-10T06:11:38;28.80;94.00
8595;DHT22;4335;48.860;9.198;2023-06-10T06:14:15;28.80;94.60
8595;DHT22;4335;48.860;9.198;2023-06-10T06:19:49;28.80;94.40
8595;DHT22;4335;48.860;9.198;2023-06-10T06:22:44;28.40;94.10
8595;DHT22;4335;48.860;9.198;2023-06-10T06:26:02;28.10;94.20
8595;DHT22;4335;48.860;9.198;2023-06-10T06:32:01;28.20;94.50
8595;DHT22;4335;48.860;9.198;2023-06-10T06:34:40;28.40;94.60
8595;DHT22;4335;48.860;9.198;2023-06-10T06:37:17;28.90;93.90
8595;DHT22;4335;48.860;9.198;2023-06-10T06:39:46;29.40;93.20
8595;DHT22;4335;48.860;9.198;2023-06-10T06:42:28;30.20;92.20
8595;DHT22;4335;48.860;9.198;2023-06-10T06:45:30;30.60;90.50
8595;DHT22;4335;48.860;9.198;2023-06-10T06:48:15;31.30;87.00
8595;DHT22;4335;48.860;9.198;2023-06-10T06:50:52;31.50;85.40
8595;DHT22;4335;48.860;9.198;2023-06-10T06:53:39;31.70;83.70
8595;DHT22;4335;48.860;9.198;2023-06-10T06:56:23;32.20;82.20
8595;DHT22;4335;48.860;9.198;2023-06-10T06:58:58;32.40;79.40
8595;DHT22;4335;48.860;9.198;2023-06-10T07:02:10;32.80;77.40
8595;DHT22;4335;48.860;9.198;2023-06-10T07:07:50;34.50;74.00
8595;DHT22;4335;48.860;9.198;2023-06-10T07:10:46;34.50;68.50
8595;DHT22;4335;48.860;9.198;2023-06-10T07:14:01;34.80;67.70
8595;DHT22;4335;48.860;9.198;2023-06-10T07:17:04;35.30;66.50
8595;DHT22;4335;48.860;9.198;2023-06-10T07:20:03;35.60;63.10
8595;DHT22;4335;48.860;9.198;2023-06-10T07:22:44;35.00;62.60
8595;DHT22;4335;48.860;9.198;2023-06-10T07:25:50;35.30;63.00
8595;DHT22;4335;48.860;9.198;2023-06-10T07:28:43;35.70;62.40
8595;DHT22;4335;48.860;9.198;2023-06-10T07:34:26;37.00;59.00
8595;DHT22;4335;48.860;9.198;2023-06-10T07:37:43;37.40;58.50
8595;DHT22;4335;48.860;9.198;2023-06-10T07:40:31;38.10;57.40
8595;DHT22;4335;48.860;9.198;2023-06-10T07:45:52;37.20;56.00
8595;DHT22;4335;48.860;9.198;2023-06-10T07:48:45;37.00;56.00
8595;DHT22;4335;48.860;9.198;2023-06-10T07:51:40;36.70;57.30
8595;DHT22;4335;48.860;9.198;2023-06-10T07:54:32;36.10;58.60
8595;DHT22;4335;48.860;9.198;2023-06-10T07:57:37;35.60;59.80
8595;DHT22;4335;48.860;9.198;2023-06-10T08:00:32;35.50;59.60
8595;DHT22;4335;48.860;9.198;2023-06-10T08:03:18;34.40;61.00
8595;DHT22;4335;48.860;9.198;2023-06-10T08:05:53;33.80;61.40
8595;DHT22;4335;48.860;9.198;2023-06-10T08:08:45;34.50;62.20
8595;DHT22;4335;48.860;9.198;2023-06-10T08:11:21;35.40;62.50
8595;DHT22;4335;48.860;9.198;2023-06-10T08:20:25;37.50;56.30
8595;DHT22;4335;48.860;9.198;2023-06-10T08:24:15;38.30;55.10
8595;DHT22;4335;48.860;9.198;2023-06-10T08:26:43;39.50;52.90
8595;DHT22;4335;48.860;9.198;2023-06-10T08:32:38;40.50;50.60
8595;DHT22;4335;48.860;9.198;2023-06-10T08:38:14;39.70;48.70
8595;DHT22;4335;48.860;9.198;2023-06-10T08:41:22;39.90;49.00
8595;DHT22;4335;48.860;9.198;2023-06-10T08:44:38;40.30;48.30
8595;DHT22;4335;48.860;9.198;2023-06-10T08:47:28;40.40;47.70
8595;DHT22;4335;48.860;9.198;2023-06-10T08:50:10;40.50;47.20
8595;DHT22;4335;48.860;9.198;2023-06-10T08:53:05;40.20;47.70
8595;DHT22;4335;48.860;9.198;2023-06-10T08:55:42;40.90;48.10
8595;DHT22;4335;48.860;9.198;2023-06-10T08:58:23;41.00;45.80
8595;DHT22;4335;48.860;9.198;2023-06-10T09:01:01;42.30;45.40
8595;DHT22;4335;48.860;9.198;2023-06-10T09:03:37;42.50;45.50
8595;DHT22;4335;48.860;9.198;2023-06-10T09:06:57;42.40;45.20
8595;DHT22;4335;48.860;9.198;2023-06-10T09:09:45;42.10;43.00
8595;DHT22;4335;48.860;9.198;2023-06-10T09:12:49;42.30;42.90
8595;DHT22;4335;48.860;9.198;2023-06-10T09:15:32;42.30;42.40
8595;DHT22;4335;48.860;9.198;2023-06-10T09:18:46;41.60;42.10
8595;DHT22;4335;48.860;9.198;2023-06-10T09:21:21;41.10;42.40
8595;DHT22;4335;48.860;9.198;2023-06-10T09:26:46;40.80;42.60
8595;DHT22;4335;48.860;9.198;2023-06-10T09:36:42;38.70;44.90
8595;DHT22;4335;48.860;9.198;2023-06-10T09:39:23;38.60;45.40
8595;DHT22;4335;48.860;9.198;2023-06-10T09:42:01;38.60;45.60
8595;DHT22;4335;48.860;9.198;2023-06-10T09:45:18;37.00;47.20
8595;DHT22;4335;48.860;9.198;2023-06-10T09:48:02;34.30;50.90
8595;DHT22;4335;48.860;9.198;2023-06-10T09:50:53;32.60;54.10
8595;DHT22;4335;48.860;9.198;2023-06-10T09:53:38;32.70;55.10
8595;DHT22;4335;48.860;9.198;2023-06-10T09:56:13;33.50;53.60
8595;DHT22;4335;48.860;9.198;2023-06-10T09:59:01;34.90;52.40
8595;DHT22;4335;48.860;9.198;2023-06-10T10:04:59;36.50;49.20
8595;DHT22;4335;48.860;9.198;2023-06-10T10:07:54;37.10;47.80
8595;DHT22;4335;48.860;9.198;2023-06-10T10:10:48;38.60;46.80
8595;DHT22;4335;48.860;9.198;2023-06-10T10:13:39;39.40;45.70
8595;DHT22;4335;48.860;9.198;2023-06-10T10:16:59;39.70;44.90
8595;DHT22;4335;48.860;9.198;2023-06-10T10:20:14;39.10;44.10
8595;DHT22;4335;48.860;9.198;2023-06-10T10:23:13;39.20;44.80
8595;DHT22;4335;48.860;9.198;2023-06-10T10:26:12;38.60;44.80
8595;DHT22;4335;48.860;9.198;2023-06-10T10:29:07;38.30;45.90
8595;DHT22;4335;48.860;9.198;2023-06-10T10:31:44;37.60;46.60
8595;DHT22;4335;48.860;9.198;2023-06-10T10:34:41;37.50;46.50
8595;DHT22;4335;48.860;9.198;2023-06-10T10:40:58;36.80;47.10
8595;DHT22;4335;48.860;9.198;2023-06-10T10:43:33;36.00;48.60
8595;DHT22;4335;48.860;9.198;2023-06-10T10:49:15;34.40;50.90
8595;DHT22;4335;48.860;9.198;2023-06-10T10:52:15;33.40;53.30
8595;DHT22;4335;48.860;9.198;2023-06-10T10:55:04;32.60;54.50
8595;DHT22;4335;48.860;9.198;2023-06-10T10:58:11;32.20;54.60
8595;DHT22;4335;48.860;9.198;2023-06-10T11:01:17;31.30;55.40
8595;DHT22;4335;48.860;9.198;2023-06-10T11:07:09;30.10;58.00
8595;DHT22;4335;48.860;9.198;2023-06-10T11:16:42;28.70;60.10
8595;DHT22;4335;48.860;9.198;2023-06-10T11:20:15;28.50;60.80
8595;DHT22;4335;48.860;9.198;2023-06-10T11:23:16;28.60;60.70
8595;DHT22;4335;48.860;9.198;2023-06-10T11:26:43;28.40;61.40
8595;DHT22;4335;48.860;9.198;2023-06-10T11:36:08;27.90;63.80
8595;DHT22;4335;48.860;9.198;2023-06-10T11:39:07;28.00;64.90
8595;DHT22;4335;48.860;9.198;2023-06-10T11:42:10;28.10;64.00
8595;DHT22;4335;48.860;9.198;2023-06-10T11:48:23;28.20;64.70
8595;DHT22;4335;48.860;9.198;2023-06-10T11:51:46;28.10;64.60
8595;DHT22;4335;48.860;9.198;2023-06-10T11:54:38;27.80;64.50
8595;DHT22;4335;48.860;9.198;2023-06-10T11:57:19;27.70;64.60
8595;DHT22;4335;48.860;9.198;2023-06-10T11:59:58;27.70;64.40
8595;DHT22;4335;48.860;9.198;2023-06-10T12:06:08;28.00;65.50
8595;DHT22;4335;48.860;9.198;2023-06-10T12:08:54;27.90;64.20
8595;DHT22;4335;48.860;9.198;2023-06-10T12:11:51;27.90;65.40
8595;DHT22;4335;48.860;9.198;2023-06-10T12:14:57;27.90;64.40
8595;DHT22;4335;48.860;9.198;2023-06-10T12:18:10;28.00;63.40
8595;DHT22;4335;48.860;9.198;2023-06-10T12:21:25;28.00;63.50
8595;DHT22;4335;48.860;9.198;2023-06-10T12:24:28;28.10;63.60
8595;DHT22;4335;48.860;9.198;2023-06-10T12:27:13;28.10;63.70
8595;DHT22;4335;48.860;9.198;2023-06-10T12:30:18;28.20;63.90
8595;DHT22;4335;48.860;9.198;2023-06-10T12:36:06;28.30;63.90
8595;DHT22;4335;48.860;9.198;2023-06-10T12:38:45;28.30;64.70
8595;DHT22;4335;48.860;9.198;2023-06-10T12:47:42;28.10;65.30
8595;DHT22;4335;48.860;9.198;2023-06-10T12:54:11;28.40;64.60
8595;DHT22;4335;48.860;9.198;2023-06-10T12:56:42;28.60;63.90
8595;DHT22;4335;48.860;9.198;2023-06-10T13:00:04;28.50;63.70
8595;DHT22;4335;48.860;9.198;2023-06-10T13:02:51;28.20;63.30
8595;DHT22;4335;48.860;9.198;2023-06-10T13:05:27;28.00;64.30
8595;DHT22;4335;48.860;9.198;2023-06-10T13:08:02;27.90;64.00
8595;DHT22;4335;48.860;9.198;2023-06-10T13:10:35;27.80;65.00
8595;DHT22;4335;48.860;9.198;2023-06-10T13:13:17;27.70;65.00
8595;DHT22;4335;48.860;9.198;2023-06-10T13:15:54;27.60;65.10
8595;DHT22;4335;48.860;9.198;2023-06-10T13:18:59;27.60;64.80
8595;DHT22;4335;48.860;9.198;2023-06-10T13:22:44;27.80;64.80
8595;DHT22;4335;48.860;9.198;2023-06-10T13:25:34;27.80;64.50
8595;DHT22;4335;48.860;9.198;2023-06-10T13:28:36;27.90;64.00
8595;DHT22;4335;48.860;9.198;2023-06-10T13:31:33;27.80;63.80
8595;DHT22;4335;48.860;9.198;2023-06-10T13:34:14;27.70;64.50
8595;DHT22;4335;48.860;9.198;2023-06-10T13:40:35;27.60;64.70
8595;DHT22;4335;48.860;9.198;2023-06-10T13:46:30;27.80;65.60
8595;DHT22;4335;48.860;9.198;2023-06-10T13:49:23;28.00;66.90
8595;DHT22;4335;48.860;9.198;2023-06-10T13:52:11;28.00;65.00
8595;DHT22;4335;48.860;9.198;2023-06-10T13:54:48;27.90;63.70
8595;DHT22;4335;48.860;9.198;2023-06-10T13:57:27;27.90;65.30
8595;DHT22;4335;48.860;9.198;2023-06-10T14:00:13;27.80;64.90
8595;DHT22;4335;48.860;9.198;2023-06-10T14:06:44;27.90;65.40
8595;DHT22;4335;48.860;9.198;2023-06-10T14:09:48;27.90;65.70
8595;DHT22;4335;48.860;9.198;2023-06-10T14:12:35;27.90;65.90
8595;DHT22;4335;48.860;9.198;2023-06-10T14:15:16;27.90;66.20
8595;DHT22;4335;48.860;9.198;2023-06-10T14:17:47;28.00;66.20
8595;DHT22;4335;48.860;9.198;2023-06-10T14:23:12;28.20;65.90
8595;DHT22;4335;48.860;9.198;2023-06-10T14:26:03;28.20;64.50
8595;DHT22;4335;48.860;9.198;2023-06-10T14:32:17;28.10;65.20
8595;DHT22;4335;48.860;9.198;2023-06-10T14:38:19;28.10;66.50
8595;DHT22;4335;48.860;9.198;2023-06-10T14:41:04;28.00;66.50
8595;DHT22;4335;48.860;9.198;2023-06-10T14:43:45;28.00;66.50
8595;DHT22;4335;48.860;9.198;2023-06-10T14:46:39;27.90;66.20
8595;DHT22;4335;48.860;9.198;2023-06-10T14:49:11;27.80;66.20
8595;DHT22;4335;48.860;9.198;2023-06-10T14:52:00;27.90;66.20
8595;DHT22;4335;48.860;9.198;2023-06-10T14:54:37;27.90;67.60
8595;DHT22;4335;48.860;9.198;2023-06-10T14:57:38;27.90;68.50
8595;DHT22;4335;48.860;9.198;2023-06-10T15:03:48;27.60;67.10
8595;DHT22;4335;48.860;9.198;2023-06-10T15:10:01;27.40;66.00
8595;DHT22;4335;48.860;9.198;2023-06-10T15:12:32;27.40;65.50
8595;DHT22;4335;48.860;9.198;2023-06-10T15:15:33;27.40;66.20
8595;DHT22;4335;48.860;9.198;2023-06-10T15:18:57;27.60;67.50
8595;DHT22;4335;48.860;9.198;2023-06-10T15:21:56;27.70;67.30
8595;DHT22;4335;48.860;9.198;2023-06-10T15:31:45;27.90;65.50
8595;DHT22;4335;48.860;9.198;2023-06-10T15:34:41;27.80;66.70
8595;DHT22;4335;48.860;9.198;2023-06-10T15:40:50;28.00;69.10
8595;DHT22;4335;48.860;9.198;2023-06-10T15:43:35;28.00;68.30
8595;DHT22;4335;48.860;9.198;2023-06-10T15:50:10;27.80;68.80
8595;DHT22;4335;48.860;9.198;2023-06-10T15:53:03;27.70;67.30
8595;DHT22;4335;48.860;9.198;2023-06-10T15:56:05;27.70;66.00
8595;DHT22;4335;48.860;9.198;2023-06-10T15:59:03;27.70;66.50
8595;DHT22;4335;48.860;9.198;2023-06-10T16:01:55;27.70;66.20
8595;DHT22;4335;48.860;9.198;2023-06-10T16:04:32;27.70;66.90
8595;DHT22;4335;48.860;9.198;2023-06-10T16:07:27;27.70;67.20
8595;DHT22;4335;48.860;9.198;2023-06-10T16:10:53;27.60;66.70
8595;DHT22;4335;48.860;9.198;2023-06-10T16:17:08;27.60;67.30
8595;DHT22;4335;48.860;9.198;2023-06-10T16:20:06;27.40;68.20
8595;DHT22;4335;48.860;9.198;2023-06-10T16:22:42;27.50;68.40
8595;DHT22;4335;48.860;9.198;2023-06-10T16:25:27;27.50;68.60
8595;DHT22;4335;48.860;9.198;2023-06-10T16:27:57;27.50;68.10
8595;DHT22;4335;48.860;9.198;2023-06-10T16:30:40;27.50;68.70
8595;DHT22;4335;48.860;9.198;2023-06-10T16:33:15;27.40;69.10
8595;DHT22;4335;48.860;9.198;2023-06-10T16:36:44;27.50;68.90
8595;DHT22;4335;48.860;9.198;2023-06-10T16:39:27;27.50;68.60
8595;DHT22;4335;48.860;9.198;2023-06-10T16:43:13;27.50;69.70
8595;DHT22;4335;48.860;9.198;2023-06-10T16:46:16;27.50;70.00
8595;DHT22;4335;48.860;9.198;2023-06-10T16:49:12;27.50;70.20
8595;DHT22;4335;48.860;9.198;2023-06-10T16:52:34;27.60;68.70
8595;DHT22;4335;48.860;9.198;2023-06-10T16:58:32;27.50;66.90
8595;DHT22;4335;48.860;9.198;2023-06-10T17:01:18;27.50;67.20
8595;DHT22;4335;48.860;9.198;2023-06-10T17:03:59;27.50;67.60
8595;DHT22;4335;48.860;9.198;2023-06-10T17:06:43;27.50;67.90
8595;DHT22;4335;48.860;9.198;2023-06-10T17:09:20;27.50;67.60
8595;DHT22;4335;48.860;9.198;2023-06-10T17:11:50;27.50;68.20
8595;DHT22;4335;48.860;9.198;2023-06-10T17:14:23;27.50;68.50
8595;DHT22;4335;48.860;9.198;2023-06-10T17:17:34;27.50;67.90
8595;DHT22;4335;48.860;9.198;2023-06-10T17:20:10;27.40;68.10
8595;DHT22;4335;48.860;9.198;2023-06-10T17:22:52;27.40;68.80
8595;DHT22;4335;48.860;9.198;2023-06-10T17:25:56;27.40;68.50
8595;DHT22;4335;48.860;9.198;2023-06-10T17:28:58;27.40;69.20
8595;DHT22;4335;48.860;9.198;2023-06-10T17:32:01;27.50;69.70
8595;DHT22;4335;48.860;9.198;2023-06-10T17:34:43;27.50;70.00
8595;DHT22;4335;48.860;9.198;2023-06-10T17:37:31;27.60;69.80
8595;DHT22;4335;48.860;9.198;2023-06-10T17:40:26;27.60;70.20
8595;DHT22;4335;48.860;9.198;2023-06-10T17:43:15;27.60;71.50
8595;DHT22;4335;48.860;9.198;2023-06-10T17:46:26;27.50;72.70
8595;DHT22;4335;48.860;9.198;2023-06-10T17:52:37;27.10;73.50
8595;DHT22;4335;48.860;9.198;2023-06-10T17:55:53;27.00;73.90
8595;DHT22;4335;48.860;9.198;2023-06-10T17:58:39;26.80;74.10
8595;DHT22;4335;48.860;9.198;2023-06-10T18:01:20;26.70;74.70
8595;DHT22;4335;48.860;9.198;2023-06-10T18:04:24;26.70;75.20
8595;DHT22;4335;48.860;9.198;2023-06-10T18:07:44;26.50;75.70
8595;DHT22;4335;48.860;9.198;2023-06-10T18:10:40;26.40;76.50
8595;DHT22;4335;48.860;9.198;2023-06-10T18:14:05;26.40;76.70
8595;DHT22;4335;48.860;9.198;2023-06-10T18:16:27;26.30;77.00
8595;DHT22;4335;48.860;9.198;2023-06-10T18:22:11;26.30;78.30
8595;DHT22;4335;48.860;9.198;2023-06-10T18:24:41;26.30;78.60
8595;DHT22;4335;48.860;9.198;2023-06-10T18:27:22;26.30;80.00
8595;DHT22;4335;48.860;9.198;2023-06-10T18:33:43;26.10;80.30
8595;DHT22;4335;48.860;9.198;2023-06-10T18:37:02;26.00;80.40
8595;DHT22;4335;48.860;9.198;2023-06-10T18:39:42;25.90;81.40
8595;DHT22;4335;48.860;9.198;2023-06-10T18:42:32;25.90;82.10
8595;DHT22;4335;48.860;9.198;2023-06-10T18:45:03;25.80;82.80
8595;DHT22;4335;48.860;9.198;2023-06-10T18:47:29;25.70;83.40
8595;DHT22;4335;48.860;9.198;2023-06-10T18:49:56;25.70;84.00
8595;DHT22;4335;48.860;9.198;2023-06-10T18:52:23;25.60;84.40
8595;DHT22;4335;48.860;9.198;2023-06-10T18:54:50;25.60;85.00
8595;DHT22;4335;48.860;9.198;2023-06-10T18:57:19;25.50;85.00
8595;DHT22;4335;48.860;9.198;2023-06-10T18:59:49;25.50;85.50
8595;DHT22;4335;48.860;9.198;2023-06-10T19:02:16;25.40;85.50
8595;DHT22;4335;48.860;9.198;2023-06-10T19:04:42;25.40;85.60
8595;DHT22;4335;48.860;9.198;2023-06-10T19:07:10;25.30;86.20
8595;DHT22;4335;48.860;9.198;2023-06-10T19:09:36;25.20;86.80
8595;DHT22;4335;48.860;9.198;2023-06-10T19:12:05;25.20;87.00
8595;DHT22;4335;48.860;9.198;2023-06-10T19:14:35;25.10;87.30
8595;DHT22;4335;48.860;9.198;2023-06-10T19:17:05;25.10;87.90
8595;DHT22;4335;48.860;9.198;2023-06-10T19:19:38;25.00;88.40
8595;DHT22;4335;48.860;9.198;2023-06-10T19:22:05;24.90;89.20
8595;DHT22;4335;48.860;9.198;2023-06-10T19:24:33;24.90;90.10
8595;DHT22;4335;48.860;9.198;2023-06-10T19:26:59;24.80;90.20
8595;DHT22;4335;48.860;9.198;2023-06-10T19:29:26;24.80;90.50
8595;DHT22;4335;48.860;9.198;2023-06-10T19:31:53;24.70;90.70
8595;DHT22;4335;48.860;9.198;2023-06-10T19:34:22;24.70;90.40
8595;DHT22;4335;48.860;9.198;2023-06-10T19:36:51;24.70;90.40
8595;DHT22;4335;48.860;9.198;2023-06-10T19:39:18;24.60;90.80
8595;DHT22;4335;48.860;9.198;2023-06-10T19:41:48;24.50;91.00
8595;DHT22;4335;48.860;9.198;2023-06-10T19:44:18;24.50;91.10
8595;DHT22;4335;48.860;9.198;2023-06-10T19:46:48;24.40;91.40
8595;DHT22;4335;48.860;9.198;2023-06-10T19:49:18;24.40;91.80
8595;DHT22;4335;48.860;9.198;2023-06-10T19:51:47;24.30;92.10
8595;DHT22;4335;48.860;9.198;2023-06-10T19:54:21;24.30;92.30
8595;DHT22;4335;48.860;9.198;2023-06-10T19:56:48;24.20;92.60
8595;DHT22;4335;48.860;9.198;2023-06-10T19:59:24;24.10;93.20
8595;DHT22;4335;48.860;9.198;2023-06-10T20:01:51;24.10;93.20
8595;DHT22;4335;48.860;9.198;2023-06-10T20:04:18;24.00;93.40
8595;DHT22;4335;48.860;9.198;2023-06-10T20:06:50;23.90;93.80
8595;DHT22;4335;48.860;9.198;2023-06-10T20:09:17;23.90;94.00
8595;DHT22;4335;48.860;9.198;2023-06-10T20:11:43;23.80;94.40
8595;DHT22;4335;48.860;9.198;2023-06-10T20:14:11;23.70;94.60
8595;DHT22;4335;48.860;9.198;2023-06-10T20:16:40;23.60;95.00
8595;DHT22;4335;48.860;9.198;2023-06-10T20:19:16;23.60;95.30
8595;DHT22;4335;48.860;9.198;2023-06-10T20:21:43;23.60;95.60
8595;DHT22;4335;48.860;9.198;2023-06-10T20:24:09;23.60;96.00
8595;DHT22;4335;48.860;9.198;2023-06-10T20:26:36;23.50;96.20
8595;DHT22;4335;48.860;9.198;2023-06-10T20:29:10;23.50;96.50
8595;DHT22;4335;48.860;9.198;2023-06-10T20:31:39;23.40;96.90
8595;DHT22;4335;48.860;9.198;2023-06-10T20:34:06;23.40;97.30
8595;DHT22;4335;48.860;9.198;2023-06-10T20:36:33;23.30;97.80
8595;DHT22;4335;48.860;9.198;2023-06-10T20:39:00;23.30;98.20
8595;DHT22;4335;48.860;9.198;2023-06-10T20:41:26;23.30;98.50
8595;DHT22;4335;48.860;9.198;2023-06-10T20:43:54;23.30;98.80
8595;DHT22;4335;48.860;9.198;2023-06-10T20:46:21;23.20;99.10
8595;DHT22;4335;48.860;9.198;2023-06-10T20:48:48;23.20;99.40
8595;DHT22;4335;48.860;9.198;2023-06-10T20:51:15;23.20;99.60
8595;DHT22;4335;48.860;9.198;2023-06-10T20:53:44;23.20;99.90
8595;DHT22;4335;48.860;9.198;2023-06-10T20:56:11;23.10;99.90
8595;DHT22;4335;48.860;9.198;2023-06-10T20:58:38;23.10;99.90
8595;DHT22;4335;48.860;9.198;2023-06-10T21:01:07;23.10;99.90
8595;DHT22;4335;48.860;9.198;2023-06-10T21:03:37;23.00;99.90
8595;DHT22;4335;48.860;9.198;2023-06-10T21:06:13;23.00;99.90
8595;DHT22;4335;48.860;9.198;2023-06-10T21:08:40;23.00;99.90
8595;DHT22;4335;48.860;9.198;2023-06-10T21:11:06;23.00;99.90
8595;DHT22;4335;48.860;9.198;2023-06-10T21:13:36;22.90;99.90
8595;DHT22;4335;48.860;9.198;2023-06-10T21:16:04;22.90;99.90
8595;DHT22;4335;48.860;9.198;2023-06-10T21:18:31;22.90;99.90
8595;DHT22;4335;48.860;9.198;2023-06-10T21:20:58;22.80;99.90
8595;DHT22;4335;48.860;9.198;2023-06-10T21:23:25;22.80;99.90